Hayden, CO (81639)

12:42 AM MST am 26. Februar 2017 (GMT -0700)
Yampa Valley | | Change Station

Höhe 6601 ft 40.48 °N, 107.22 °W | Updated 7 minutes ago

Mostly Cloudy
Wolkig
16 °F
gefühlte 16 °F
N
0
Wind Wechselnd Wind aus Nord

Heute
Max. -- | schwach -- °F
--% Regenrisiko
Gestern
Max. -- | schwach -- °F
Precip. -- inch
Druck 29.88 inch
Sichtweite 10.0 Meilen
Wolken Wolkig 4600 ft
Taupunkt 9 °F
Feuchtigkeit 73%
Regen 0.00 inch
Schneehöhe Nicht verfügbar..
6:46 AM 5:57 PM
Letztes Viertel, 0% visible
METAR KHDN 260735Z AUTO 00000KT 10SM BKN046 M09/M13 A2988 RMK AO1
Druck 29.88 inch
Sichtweite 10.0 Meilen
Wolken Wolkig 4600 ft
Taupunkt 9 °F
Feuchtigkeit 73%
Regen 0.00 inch
Schneehöhe Nicht verfügbar..
6:46 AM 5:57 PM
Letztes Viertel, 0% visible
METAR KHDN 260735Z AUTO 00000KT 10SM BKN046 M09/M13 A2988 RMK AO1

Get Your Daily Forecast Email!

Thanks for signing up!

Be on the lookout for a verification email in your inbox.

You'll start receiving the daily forecast at 8 AM.

×

10-Day Weather Forecast

Almanac

Astronomie

Feb. 26, 2017 Aufgang Untergang
Genaue Zeit
Bürgerliche Dämmerung
Nautische Dämmerung
Astronomische Dämmerung
Mond
Länge des sichtbaren Lichts
Tageslänge
Tomorrow will be .
, % of the Moon is Illuminated

Heutige Rekorde

State Highs State Lows

Community

WunderPhotos

Upload Photos

1,962,540 Fotos hochgeladen!

WunderBlog® & News

Nearby

Luftqualität

  Luftqualität LQ Index Schadstoff
Not available.

Schneehöhe

Station Depth Höhe

Erdbebenaktivität

Stadt Distance Mag. Time & Date
Minimum magnitude displayed is 2.5.

küstennahe Wassertemperaturen

Ort Temperatur

Stations

Wetterstationen in der Umgebung

Stationsstandort Temp. Windchill Taupunkt Feuchtigkeit Wind Precip. Höhe Aktualisiert Art
                   

Watches & Warnings

There are currently no watches in effect.